createdAt,value
2022-09-28T00:00:22.299Z,98768.19
2022-09-28T00:03:25.566Z,98768.41
2022-09-28T00:06:30.764Z,98774.37
2022-09-28T00:09:33.707Z,98773.16
2022-09-28T00:12:36.199Z,98776.00
2022-09-28T00:15:39.101Z,98778.66
2022-09-28T00:18:41.876Z,98765.25
2022-09-28T00:21:44.700Z,98763.00
2022-09-28T00:24:47.484Z,98757.94
2022-09-28T00:27:51.176Z,98765.78
2022-09-28T00:30:57.006Z,98752.16
2022-09-28T00:34:02.844Z,98745.97
2022-09-28T00:37:06.877Z,98752.50
2022-09-28T00:40:10.156Z,98756.06
2022-09-28T00:43:23.012Z,98752.75
2022-09-28T00:46:34.919Z,98763.34
2022-09-28T00:49:53.644Z,98769.16
2022-09-28T00:53:06.602Z,98770.53
2022-09-28T00:56:19.090Z,98768.56
2022-09-28T00:59:24.801Z,98771.22
2022-09-28T01:02:28.075Z,98773.47
2022-09-28T01:05:31.707Z,98773.28
2022-09-28T01:08:35.224Z,98780.94
2022-09-28T01:11:39.358Z,98780.72
2022-09-28T01:14:43.601Z,98769.00
2022-09-28T01:18:41.945Z,98775.88
2022-09-28T01:21:56.276Z,98782.50
2022-09-28T01:25:12.910Z,98790.56
2022-09-28T01:28:18.648Z,98788.84
2022-09-28T01:31:30.368Z,98790.19
2022-09-28T01:34:41.508Z,98790.88
2022-09-28T01:38:17.424Z,98793.00
2022-09-28T01:41:24.135Z,98795.78
2022-09-28T01:44:31.185Z,98805.06
2022-09-28T01:47:38.392Z,98803.50
2022-09-28T01:50:43.818Z,98811.53
2022-09-28T01:53:51.558Z,98811.75
2022-09-28T01:57:10.747Z,98818.69
2022-09-28T02:00:16.219Z,98816.81
2022-09-28T02:03:35.105Z,98816.72
2022-09-28T02:06:45.978Z,98821.09
2022-09-28T02:09:56.080Z,98813.03
2022-09-28T02:13:04.777Z,98818.09
2022-09-28T02:16:21.571Z,98821.81
2022-09-28T02:19:27.734Z,98828.50
2022-09-28T02:22:40.408Z,98825.31
2022-09-28T02:26:00.974Z,98821.94
2022-09-28T02:29:04.327Z,98815.19
2022-09-28T02:32:07.213Z,98820.31
2022-09-28T02:35:12.869Z,98824.56
2022-09-28T02:38:16.391Z,98834.75
2022-09-28T02:41:26.908Z,98840.25
2022-09-28T02:44:44.911Z,98830.53
2022-09-28T02:48:04.342Z,98833.47
2022-09-28T02:51:07.184Z,98826.09
2022-09-28T02:54:32.187Z,98823.44
2022-09-28T02:57:53.721Z,98830.97
2022-09-28T03:01:05.245Z,98831.09
2022-09-28T03:04:27.040Z,98824.47
2022-09-28T03:07:35.548Z,98834.28
2022-09-28T03:11:10.191Z,98832.16
2022-09-28T03:14:14.636Z,98840.09
2022-09-28T03:17:20.560Z,98852.88
2022-09-28T03:20:23.872Z,98853.59
2022-09-28T03:23:26.853Z,98855.28
2022-09-28T03:26:29.405Z,98850.13
2022-09-28T03:29:33.158Z,98849.09
2022-09-28T03:32:36.217Z,98851.78
2022-09-28T03:35:39.098Z,98842.22
2022-09-28T03:38:41.645Z,98852.47
2022-09-28T03:41:45.836Z,98851.41
2022-09-28T03:44:48.843Z,98848.78
2022-09-28T03:47:52.320Z,98846.16
2022-09-28T03:50:58.776Z,98848.69
2022-09-28T03:54:01.642Z,98852.47
2022-09-28T03:57:05.171Z,98856.38
2022-09-28T04:00:09.204Z,98849.94
2022-09-28T04:03:16.183Z,98847.50
2022-09-28T04:06:19.155Z,98849.81
2022-09-28T04:09:21.839Z,98862.25
2022-09-28T04:12:24.766Z,98855.25
2022-09-28T04:15:27.539Z,98854.50
2022-09-28T04:18:31.306Z,98852.47
2022-09-28T04:21:37.373Z,98855.72
2022-09-28T04:24:43.580Z,98852.72
2022-09-28T04:28:04.696Z,98856.56
2022-09-28T04:31:13.436Z,98855.22
2022-09-28T04:34:20.454Z,98855.81
2022-09-28T04:37:23.388Z,98853.41
2022-09-28T04:40:26.413Z,98855.72
2022-09-28T04:43:29.747Z,98856.25
2022-09-28T04:46:35.537Z,98855.59
2022-09-28T04:49:39.163Z,98857.56
2022-09-28T04:52:41.820Z,98855.47
2022-09-28T04:55:44.993Z,98847.66
2022-09-28T04:58:52.486Z,98854.38
2022-09-28T05:01:55.955Z,98846.81
2022-09-28T05:04:59.540Z,98850.00
2022-09-28T05:08:02.374Z,98857.69
2022-09-28T05:11:07.522Z,98853.31
2022-09-28T05:14:12.141Z,98851.72
2022-09-28T05:17:16.489Z,98855.66
2022-09-28T05:20:20.326Z,98853.88
2022-09-28T05:23:22.804Z,98850.37
2022-09-28T05:26:29.988Z,98861.44
2022-09-28T05:29:32.859Z,98862.19
2022-09-28T05:32:42.608Z,98867.38
2022-09-28T05:35:49.814Z,98864.34
2022-09-28T05:38:55.565Z,98864.06
2022-09-28T05:41:58.370Z,98863.88
2022-09-28T05:45:01.310Z,98867.22
2022-09-28T05:48:04.624Z,98859.78
2022-09-28T05:51:07.329Z,98856.38
2022-09-28T05:54:10.576Z,98870.25
2022-09-28T05:57:14.694Z,98862.59
2022-09-28T06:00:21.138Z,98862.38
2022-09-28T06:03:25.547Z,98861.50
2022-09-28T06:06:29.470Z,98853.38
2022-09-28T06:09:32.715Z,98862.56
2022-09-28T06:12:35.540Z,98863.97
2022-09-28T06:15:42.520Z,98858.75
2022-09-28T06:18:46.298Z,98864.78
2022-09-28T06:21:49.533Z,98867.00
2022-09-28T06:24:54.582Z,98858.66
2022-09-28T06:28:05.372Z,98860.03
2022-09-28T06:31:08.661Z,98865.19
2022-09-28T06:34:18.051Z,98866.13
2022-09-28T06:37:20.926Z,98867.44
2022-09-28T06:40:24.915Z,98868.38
2022-09-28T06:43:32.169Z,98876.84
2022-09-28T06:46:39.404Z,98876.59
2022-09-28T06:49:46.141Z,98870.22
2022-09-28T06:52:53.586Z,98876.31
2022-09-28T06:55:58.654Z,98881.91
2022-09-28T06:59:01.662Z,98879.56
2022-09-28T07:02:05.062Z,98887.56
2022-09-28T07:05:16.866Z,98889.69
2022-09-28T07:08:27.777Z,98881.13
2022-09-28T07:11:36.887Z,98884.00
2022-09-28T07:14:47.789Z,98887.50
2022-09-28T07:18:02.423Z,98888.84
2022-09-28T07:21:13.083Z,98893.44
2022-09-28T07:24:20.090Z,98891.69
2022-09-28T07:27:28.930Z,98891.22
2022-09-28T07:30:34.755Z,98892.53
2022-09-28T07:33:38.172Z,98887.81
2022-09-28T07:36:43.687Z,98897.72
2022-09-28T07:40:05.424Z,98890.47
2022-09-28T07:43:13.116Z,98879.97
2022-09-28T07:46:16.851Z,98887.63
2022-09-28T07:49:22.493Z,98884.19
2022-09-28T07:52:26.427Z,98879.44
2022-09-28T07:55:29.996Z,98875.94
2022-09-28T07:58:35.461Z,98882.72
2022-09-28T08:01:40.183Z,98877.16
2022-09-28T08:04:43.859Z,98886.00
2022-09-28T08:07:46.700Z,98888.87
2022-09-28T08:10:52.510Z,98895.91
2022-09-28T08:13:58.137Z,98903.41
2022-09-28T08:17:02.120Z,98895.91
2022-09-28T08:20:26.068Z,98883.50
2022-09-28T08:23:30.119Z,98875.06
2022-09-28T08:26:32.701Z,98863.81
2022-09-28T08:29:36.779Z,98862.56
2022-09-28T08:32:49.370Z,98853.44
2022-09-28T08:35:58.613Z,98855.28
2022-09-28T08:39:01.495Z,98853.62
2022-09-28T08:42:11.031Z,98858.97
2022-09-28T08:45:24.945Z,98855.59
2022-09-28T08:48:57.090Z,98874.94
2022-09-28T08:52:17.251Z,98874.09
2022-09-28T08:55:31.201Z,98871.03
2022-09-28T08:58:40.785Z,98873.59
2022-09-28T09:02:00.590Z,98874.41
2022-09-28T09:05:06.257Z,98877.69
2022-09-28T09:08:50.607Z,98858.72
2022-09-28T09:12:07.741Z,98865.16
2022-09-28T09:15:30.175Z,98876.47
2022-09-28T09:18:42.675Z,98862.66
2022-09-28T09:22:11.588Z,98869.50
2022-09-28T09:25:23.398Z,98865.72
2022-09-28T09:28:36.225Z,98862.44
2022-09-28T09:31:57.021Z,98866.84
2022-09-28T09:35:25.907Z,98868.34
2022-09-28T09:39:05.646Z,98874.59
2022-09-28T09:42:38.595Z,98864.00
2022-09-28T09:45:58.774Z,98860.44
2022-09-28T09:49:14.827Z,98859.69
2022-09-28T09:52:42.373Z,98857.63
2022-09-28T09:55:54.834Z,98855.78
2022-09-28T09:59:06.396Z,98865.03
2022-09-28T10:02:26.161Z,98855.34
2022-09-28T10:05:32.196Z,98863.97
2022-09-28T10:08:40.709Z,98859.53
2022-09-28T10:11:46.966Z,98846.91
2022-09-28T10:14:50.637Z,98854.59
2022-09-28T10:18:00.980Z,98861.72
2022-09-28T10:21:15.445Z,98862.25
2022-09-28T10:24:45.767Z,98855.59
2022-09-28T10:27:52.495Z,98859.41
2022-09-28T10:30:55.892Z,98863.78
2022-09-28T10:33:58.564Z,98865.03
2022-09-28T10:37:05.453Z,98855.34
2022-09-28T10:40:30.791Z,98855.03
2022-09-28T10:43:38.660Z,98859.41
2022-09-28T10:46:41.955Z,98862.50
2022-09-28T10:49:48.537Z,98859.41
2022-09-28T10:52:51.441Z,98864.34
2022-09-28T10:56:00.481Z,98859.66
2022-09-28T10:59:35.946Z,98863.88
2022-09-28T11:02:42.589Z,98857.00
2022-09-28T11:06:05.238Z,98848.94
2022-09-28T11:09:29.814Z,98846.28
2022-09-28T11:12:44.132Z,98842.53
2022-09-28T11:15:48.358Z,98836.09
2022-09-28T11:18:56.871Z,98858.25
2022-09-28T11:22:01.419Z,98831.09
2022-09-28T11:25:17.153Z,98826.94
2022-09-28T11:28:26.448Z,98833.09
2022-09-28T11:31:31.427Z,98821.03
2022-09-28T11:34:58.066Z,98821.47
2022-09-28T11:38:27.958Z,98810.66
2022-09-28T11:42:00.689Z,98823.62
2022-09-28T11:45:12.766Z,98823.62
2022-09-28T11:48:18.986Z,98823.22
2022-09-28T11:51:28.190Z,98830.62
2022-09-28T11:54:41.275Z,98818.91
2022-09-28T11:57:48.918Z,98823.06
2022-09-28T12:00:59.546Z,98823.00
2022-09-28T12:04:16.336Z,98813.22
2022-09-28T12:07:26.136Z,98803.22
2022-09-28T12:10:39.404Z,98812.78
2022-09-28T12:13:48.025Z,98797.84
2022-09-28T12:17:19.857Z,98781.03
2022-09-28T12:20:27.050Z,98777.78
2022-09-28T12:23:35.863Z,98775.19
2022-09-28T12:26:47.291Z,98773.41
2022-09-28T12:30:06.125Z,98769.03
2022-09-28T12:33:17.752Z,98779.91
2022-09-28T12:36:47.526Z,98774.00
2022-09-28T12:40:23.512Z,98763.31
2022-09-28T12:43:46.533Z,98745.97
2022-09-28T12:47:14.759Z,98742.28
2022-09-28T12:50:39.062Z,98756.38
2022-09-28T12:54:15.547Z,98751.19
2022-09-28T12:57:52.451Z,98742.97
2022-09-28T13:01:13.839Z,98733.59
2022-09-28T13:04:58.049Z,98740.62
2022-09-28T13:08:19.345Z,98742.13
2022-09-28T13:11:34.927Z,98745.72
2022-09-28T13:14:40.785Z,98734.78
2022-09-28T13:17:55.556Z,98729.53
2022-09-28T13:21:06.048Z,98729.25
2022-09-28T13:24:31.681Z,98733.44
2022-09-28T13:27:40.615Z,98727.84
2022-09-28T13:30:45.268Z,98723.09
2022-09-28T13:33:49.296Z,98719.47
2022-09-28T13:37:20.138Z,98717.94
2022-09-28T13:41:01.613Z,98732.09
2022-09-28T13:44:13.553Z,98717.00
2022-09-28T13:47:40.138Z,98725.69
2022-09-28T13:51:03.671Z,98722.06
2022-09-28T13:54:45.535Z,98727.81
2022-09-28T13:58:16.232Z,98728.44
2022-09-28T14:01:29.831Z,98729.44
2022-09-28T14:04:54.509Z,98724.69
2022-09-28T14:08:10.016Z,98753.16
2022-09-28T14:11:27.077Z,98732.47
2022-09-28T14:14:44.656Z,98725.00
2022-09-28T14:17:57.792Z,98714.31
2022-09-28T14:21:40.196Z,98714.16
2022-09-28T14:25:13.684Z,98724.78
2022-09-28T14:28:49.178Z,98713.22
2022-09-28T14:31:51.947Z,98735.81
2022-09-28T14:35:00.819Z,98713.44
2022-09-28T14:38:32.264Z,98718.41
2022-09-28T14:41:43.987Z,98701.19
2022-09-28T14:45:06.102Z,98712.56
2022-09-28T14:48:22.245Z,98713.87
2022-09-28T14:51:26.218Z,98707.38
2022-09-28T14:54:45.814Z,98705.41
2022-09-28T14:57:55.185Z,98699.91
2022-09-28T15:01:05.406Z,98707.97
2022-09-28T15:04:12.520Z,98703.97
2022-09-28T15:07:22.504Z,98699.03
2022-09-28T15:10:31.855Z,98701.94
2022-09-28T15:13:34.550Z,98706.00
2022-09-28T15:16:37.475Z,98704.47
2022-09-28T15:19:57.311Z,98709.62
2022-09-28T15:23:00.443Z,98697.69
2022-09-28T15:26:10.194Z,98695.78
2022-09-28T15:29:19.482Z,98689.75
2022-09-28T15:32:29.721Z,98684.94
2022-09-28T15:35:32.626Z,98673.41
2022-09-28T15:38:35.976Z,98676.72
2022-09-28T15:41:38.939Z,98683.09
2022-09-28T15:44:45.694Z,98689.87
2022-09-28T15:47:50.572Z,98686.31
2022-09-28T15:51:12.626Z,98683.78
2022-09-28T15:54:23.919Z,98679.53
2022-09-28T15:57:39.624Z,98686.78
2022-09-28T16:00:42.924Z,98690.13
2022-09-28T16:03:45.813Z,98689.41
2022-09-28T16:07:19.224Z,98693.06
2022-09-28T16:10:36.115Z,98682.13
2022-09-28T16:14:17.128Z,98691.16
2022-09-28T16:17:33.715Z,98686.66
2022-09-28T16:20:39.213Z,98691.91
2022-09-28T16:23:42.657Z,98683.00
2022-09-28T16:26:45.333Z,98687.25
2022-09-28T16:30:14.554Z,98685.31
2022-09-28T16:33:49.059Z,98676.88
2022-09-28T16:36:52.224Z,98681.94
2022-09-28T16:39:55.639Z,98679.09
2022-09-28T16:43:04.345Z,98684.31
2022-09-28T16:46:10.498Z,98685.97
2022-09-28T16:49:19.914Z,98688.66
2022-09-28T16:52:42.756Z,98690.28
2022-09-28T16:55:48.613Z,98688.75
2022-09-28T16:58:51.175Z,98687.91
2022-09-28T17:01:56.638Z,98680.13
2022-09-28T17:05:07.226Z,98689.47
2022-09-28T17:08:22.255Z,98692.69
2022-09-28T17:11:25.400Z,98689.66
2022-09-28T17:14:28.323Z,98696.34
2022-09-28T17:17:31.447Z,98691.03
2022-09-28T17:20:39.078Z,98691.66
2022-09-28T17:23:44.931Z,98685.16
2022-09-28T17:26:50.359Z,98685.41
2022-09-28T17:29:52.987Z,98673.00
2022-09-28T17:32:55.920Z,98670.34
2022-09-28T17:36:04.822Z,98676.94
2022-09-28T17:39:17.987Z,98687.28
2022-09-28T17:42:22.609Z,98688.75
2022-09-28T17:45:28.568Z,98693.62
2022-09-28T17:48:34.270Z,98684.63
2022-09-28T17:51:38.826Z,98695.41
2022-09-28T17:54:42.978Z,98685.62
2022-09-28T17:57:46.698Z,98694.38
2022-09-28T18:00:51.863Z,98692.03
2022-09-28T18:03:54.658Z,98700.19
2022-09-28T18:06:57.479Z,98706.91
2022-09-28T18:10:00.999Z,98714.31
2022-09-28T18:13:03.578Z,98714.09
2022-09-28T18:16:06.700Z,98713.50
2022-09-28T18:19:10.391Z,98710.34
2022-09-28T18:22:17.748Z,98712.75
2022-09-28T18:25:21.907Z,98712.75
2022-09-28T18:28:25.024Z,98712.63
2022-09-28T18:31:28.491Z,98723.59
2022-09-28T18:34:37.133Z,98720.31
2022-09-28T18:37:43.202Z,98718.34
2022-09-28T18:40:48.411Z,98719.19
2022-09-28T18:44:00.498Z,98718.69
2022-09-28T18:47:04.370Z,98714.25
2022-09-28T18:50:08.158Z,98722.03
2022-09-28T18:53:14.276Z,98718.38
2022-09-28T18:56:18.934Z,98728.50
2022-09-28T18:59:27.284Z,98726.34
2022-09-28T19:02:30.176Z,98731.16
2022-09-28T19:05:33.859Z,98734.63
2022-09-28T19:08:38.466Z,98734.78
2022-09-28T19:11:41.758Z,98727.31
2022-09-28T19:14:44.394Z,98726.97
2022-09-28T19:17:50.441Z,98736.25
2022-09-28T19:20:53.086Z,98728.28
2022-09-28T19:24:03.441Z,98724.34
2022-09-28T19:27:08.773Z,98732.59
2022-09-28T19:30:12.514Z,98741.03
2022-09-28T19:33:17.482Z,98735.06
2022-09-28T19:36:24.069Z,98738.06
2022-09-28T19:39:26.767Z,98736.88
2022-09-28T19:42:29.971Z,98733.09
2022-09-28T19:45:36.763Z,98728.28
2022-09-28T19:48:42.564Z,98729.28
2022-09-28T19:52:11.421Z,98721.47
2022-09-28T19:55:14.614Z,98723.13
2022-09-28T19:58:24.095Z,98724.94
2022-09-28T20:01:31.700Z,98725.12
2022-09-28T20:04:35.090Z,98722.31
2022-09-28T20:07:39.850Z,98719.31
2022-09-28T20:10:52.417Z,98714.34
2022-09-28T20:13:55.488Z,98710.72
2022-09-28T20:16:58.387Z,98703.59
2022-09-28T20:20:01.018Z,98711.56
2022-09-28T20:23:04.645Z,98714.66
2022-09-28T20:26:14.705Z,98710.22
2022-09-28T20:29:17.840Z,98705.78
2022-09-28T20:32:20.455Z,98713.41
2022-09-28T20:35:32.758Z,98716.53
2022-09-28T20:38:40.445Z,98708.44
2022-09-28T20:41:43.445Z,98702.97
2022-09-28T20:44:46.086Z,98703.44
2022-09-28T20:47:48.961Z,98701.81
2022-09-28T20:51:03.126Z,98701.97
2022-09-28T20:54:07.527Z,98692.88
2022-09-28T20:57:19.081Z,98688.88
2022-09-28T21:00:23.004Z,98682.63
2022-09-28T21:03:25.651Z,98686.91
2022-09-28T21:06:34.177Z,98689.25
2022-09-28T21:09:37.599Z,98683.94
2022-09-28T21:12:40.719Z,98683.94
2022-09-28T21:15:45.146Z,98683.94
2022-09-28T21:18:48.590Z,98677.50
2022-09-28T21:21:51.395Z,98672.56
2022-09-28T21:24:54.439Z,98664.44
2022-09-28T21:28:00.179Z,98673.69
2022-09-28T21:31:06.419Z,98656.66
2022-09-28T21:34:13.816Z,98667.09
2022-09-28T21:37:16.740Z,98665.59
2022-09-28T21:40:20.438Z,98658.16
2022-09-28T21:43:24.686Z,98652.53
2022-09-28T21:46:33.457Z,98648.91
2022-09-28T21:49:39.342Z,98649.88
2022-09-28T21:52:44.361Z,98650.06
2022-09-28T21:55:52.587Z,98647.22
2022-09-28T21:58:55.396Z,98647.56
2022-09-28T22:01:58.371Z,98650.88
2022-09-28T22:05:01.282Z,98661.28
2022-09-28T22:08:03.860Z,98658.19
2022-09-28T22:11:09.802Z,98667.56
2022-09-28T22:14:12.450Z,98665.78
2022-09-28T22:17:16.600Z,98662.16
2022-09-28T22:20:19.343Z,98661.13
2022-09-28T22:23:22.277Z,98657.34
2022-09-28T22:26:26.231Z,98658.84
2022-09-28T22:29:29.183Z,98662.16
2022-09-28T22:32:33.088Z,98657.19
2022-09-28T22:35:35.979Z,98651.56
2022-09-28T22:38:39.228Z,98651.87
2022-09-28T22:41:42.116Z,98649.91
2022-09-28T22:44:44.752Z,98644.75
2022-09-28T22:47:47.650Z,98643.91
2022-09-28T22:50:51.565Z,98650.06
2022-09-28T22:53:54.485Z,98654.84
2022-09-28T22:56:57.155Z,98659.16
2022-09-28T23:00:00.406Z,98658.16
2022-09-28T23:03:04.796Z,98660.81
2022-09-28T23:06:08.705Z,98659.16
2022-09-28T23:09:11.460Z,98651.84
2022-09-28T23:12:14.332Z,98648.25
2022-09-28T23:15:17.858Z,98648.53
2022-09-28T23:18:21.067Z,98640.28
2022-09-28T23:21:27.133Z,98642.75
2022-09-28T23:24:30.476Z,98642.28
2022-09-28T23:27:33.161Z,98644.41
2022-09-28T23:30:36.218Z,98649.06
2022-09-28T23:33:38.797Z,98654.53
2022-09-28T23:36:41.834Z,98650.22
2022-09-28T23:39:44.656Z,98645.25
2022-09-28T23:42:47.962Z,98632.19
2022-09-28T23:45:50.521Z,98641.97
2022-09-28T23:48:53.669Z,98629.41
2022-09-28T23:51:56.264Z,98635.00
2022-09-28T23:54:59.109Z,98648.41
2022-09-28T23:58:01.748Z,98653.22
